Latest Weather Observations for Mount Boyce

IDN60801

Issued at 2:33 pm EDT Sunday 1 February 2015 (issued every 30 minutes, with the page automatically refreshed every 10 minutes)

About weather observations | Map of weather stations | Latest weather observations for NSW | Other Formats
Station Details ID: 063292 Name: MOUNT BOYCE AWS Lat: -33.62 Lon: 150.27 Height: 1080.0 m
Data from the previous 72 hours. | See also: Recent months at Mount Boyce
Date/Time
EDT
Temp
°C
App
Temp
°C
Dew
Point
Rel
Hum
%
Delta-T
°C
Wind Press
QNH
hPa
Press
MSL
hPa
Rain
since 9 am
mm
Dir
 
Spd
km/h
Gust
km/h
Spd
kts
Gust
kts
01/02:30pm 20.4 19.6 12.9 62 4.5 NE 9 17 5 9 - - 0.0
01/02:00pm 19.4 18.7 13.1 67 3.8 ENE 9 19 5 10 - - 0.0
01/01:30pm 20.2 19.7 12.7 62 4.5 ENE 7 15 4 8 - - 0.0
01/01:00pm 20.2 19.2 11.1 56 5.3 NNE 7 13 4 7 - - 0.0
01/12:30pm 20.5 18.9 8.2 45 6.8 WNW 6 19 3 10 - - 0.0
01/12:00pm 20.1 18.6 9.1 49 6.1 WNW 7 17 4 9 - - 0.0
01/11:30am 18.7 16.8 8.9 53 5.4 WSW 9 17 5 9 - - 0.0
01/11:00am 17.6 15.6 8.7 56 4.9 WSW 9 13 5 7 - - 0.0
01/10:30am 18.1 17.9 11.9 67 3.6 NE 4 13 2 7 - - 0.0
01/10:00am 16.3 15.4 10.8 70 3.1 WNW 6 9 3 5 - - 0.0
01/09:30am 15.6 15.2 9.9 69 3.1 W 2 7 1 4 - - 0.0
01/09:00am 14.7 15.0 12.2 85 1.4 W 2 6 1 3 - - 0.0
01/08:30am 14.0 12.9 12.0 88 1.1 N 9 15 5 8 - - 0.0
01/08:21am 13.4 12.7 12.1 92 0.7 NNW 7 11 4 6 - - 0.0
01/08:00am 12.1 11.4 11.3 95 0.4 N 6 7 3 4 - - 0.0
01/07:57am 12.2 11.9 11.4 95 0.4 NNW 4 7 2 4 - - 0.0
01/07:43am 12.2 11.6 11.6 96 0.3 NW 6 11 3 6 - - 0.0
01/07:30am 11.9 11.6 11.4 97 0.3 N 4 7 2 4 - - 0.0
01/07:00am 11.2 9.7 10.6 96 0.3 NE 9 11 5 6 - - 0.0
01/06:48am 11.4 10.0 10.8 96 0.3 NNE 9 13 5 7 - - 0.0
01/06:30am 11.5 10.1 11.0 97 0.3 N 9 15 5 8 - - 0.0
01/06:20am 11.2 10.1 10.6 96 0.3 NNW 7 11 4 6 - - 0.0
01/06:00am 10.8 10.9 10.2 96 0.3 CALM 0 0 0 0 - - 0.0
01/05:30am 11.1 10.5 10.5 96 0.3 W 4 9 2 5 - - 0.0
01/05:00am 11.9 11.2 11.4 97 0.3 NNE 6 11 3 6 - - 0.0
01/04:41am 11.8 10.9 11.3 97 0.3 NE 7 15 4 8 - - 0.0
01/04:30am 11.3 10.4 10.7 96 0.3 NNE 6 9 3 5 - - 0.0
01/04:17am 11.5 10.5 10.9 96 0.3 NNE 7 13 4 7 - - 0.0
01/04:00am 11.5 10.1 10.9 96 0.3 NE 9 13 5 7 - - 0.0
01/03:30am 11.3 9.8 10.7 96 0.3 ENE 9 15 5 8 - - 0.0
01/03:27am 11.3 9.8 10.7 96 0.3 ENE 9 15 5 8 - - 0.0
01/03:26am 11.3 9.8 10.7 96 0.3 ENE 9 15 5 8 - - 0.0
01/03:00am 11.6 10.2 11.0 96 0.3 ENE 9 13 5 7 - - 0.0
01/02:30am 11.8 10.1 11.3 97 0.3 NE 11 17 6 9 - - 0.0
01/02:29am 11.7 10.0 11.1 96 0.3 NE 11 17 6 9 - - 0.0
01/02:06am 11.3 9.8 10.5 95 0.4 ENE 9 11 5 6 - - 0.0
01/02:00am 11.2 10.0 10.4 95 0.4 ENE 7 11 4 6 - - 0.0
01/01:30am 11.3 10.1 10.2 93 0.6 ENE 7 11 4 6 - - 0.0
01/01:24am 11.4 10.2 10.3 93 0.6 ENE 7 9 4 5 - - 0.0
01/01:00am 11.7 10.6 10.6 93 0.6 ENE 7 11 4 6 - - 0.0
01/12:30am 11.9 11.0 10.6 92 0.7 ENE 6 9 3 5 - - 0.0
01/12:00am 12.0 10.6 10.9 93 0.6 ENE 9 15 5 8 - - 0.0
 
Date/Time
EDT
Temp
°C
App
Temp
°C
Dew
Point
Rel
Hum
%
Delta-T
°C
Wind Press
QNH
hPa
Press
MSL
hPa
Rain
since 9 am
mm
Dir
 
Spd
km/h
Gust
km/h
Spd
kts
Gust
kts
31/11:30pm 11.7 10.2 10.4 92 0.7 ENE 9 11 5 6 - - 0.0
31/11:29pm 11.6 10.0 10.3 92 0.7 ENE 9 11 5 6 - - 0.0
31/11:00pm 11.7 10.1 10.3 91 0.8 ENE 9 15 5 8 - - 0.0
31/10:30pm 11.8 10.1 10.0 89 1.0 ENE 9 13 5 7 - - 0.0
31/10:00pm 12.2 10.6 10.3 88 1.0 ENE 9 13 5 7 - - 0.0
31/09:30pm 12.4 10.8 10.1 86 1.3 ENE 9 15 5 8 - - 0.0
31/09:00pm 12.7 10.7 10.1 84 1.4 ENE 11 13 6 7 - - 0.0
31/08:30pm 13.4 11.4 10.0 80 1.9 ENE 11 15 6 8 - - 0.0
31/08:00pm 14.5 12.9 10.3 76 2.3 ENE 9 11 5 6 - - 0.0
31/07:30pm 15.2 13.3 10.4 73 2.7 ENE 11 15 6 8 - - 0.0
31/07:00pm 16.8 15.5 11.1 69 3.2 E 9 13 5 7 - - 0.0
31/06:30pm 17.5 16.7 11.8 69 3.3 ENE 7 11 4 6 - - 0.0
31/05:30pm 18.2 17.5 11.5 65 3.9 E 6 11 3 6 - - 0.0
31/05:00pm 17.6 16.6 10.9 65 3.8 E 7 13 4 7 - - 0.0
31/04:30pm 19.1 15.4 6.2 43 6.8 SW 15 28 8 15 - - 0.0
31/04:00pm 20.3 16.3 6.6 41 7.3 W 17 30 9 16 - - 0.0
31/03:30pm 19.2 15.6 6.7 44 6.6 WSW 15 20 8 11 - - 0.0
31/03:00pm 22.2 19.5 9.0 43 7.4 W 13 20 7 11 - - 0.0
31/02:30pm 19.1 16.0 7.2 46 6.4 W 13 20 7 11 - - 0.0
31/02:00pm 20.1 17.6 8.4 47 6.4 WSW 11 20 6 11 - - 0.0
31/01:30pm 19.9 16.4 7.3 44 6.8 WSW 15 28 8 15 - - 0.0
31/01:00pm 18.5 14.4 6.0 44 6.5 W 17 30 9 16 - - 0.0
31/12:30pm 18.3 14.6 6.2 45 6.3 W 15 24 8 13 - - 0.0
31/12:00pm 17.6 13.1 5.9 46 6.0 W 19 28 10 15 - - 0.0
31/11:30am 17.0 13.1 7.1 52 5.2 WSW 17 26 9 14 - - 0.0
31/11:00am 16.7 13.9 8.7 59 4.3 SW 13 19 7 10 - - 0.0
31/10:30am 16.1 13.8 7.3 56 4.6 W 9 13 5 7 - - 0.0
31/10:00am 15.4 12.9 8.4 63 3.7 W 11 15 6 8 - - 0.0
31/09:30am 14.9 12.1 7.0 59 4.1 WNW 11 17 6 9 - - 0.0
31/09:00am 13.5 12.4 8.4 71 2.7 W 4 7 2 4 - - 0.0
31/08:30am 13.2 12.1 8.5 73 2.5 NW 4 11 2 6 - - 0.0
31/08:00am 12.3 10.6 8.4 77 2.0 NE 7 13 4 7 - - 0.0
31/07:30am 11.4 9.6 7.9 79 1.8 NE 7 13 4 7 - - 0.0
31/07:00am 10.4 8.4 7.1 80 1.7 ENE 7 9 4 5 - - 0.0
31/06:30am 10.4 8.2 6.4 76 2.0 NNE 7 9 4 5 - - 0.0
31/06:00am 10.7 9.9 6.5 75 2.1 CALM 0 0 0 0 - - 0.0
31/05:30am 10.9 10.1 6.3 73 2.3 CALM 0 0 0 0 - - 0.0
31/05:00am 10.8 10.0 6.4 74 2.2 CALM 0 0 0 0 - - 0.0
31/04:30am 10.7 9.2 6.8 77 2.0 S 4 7 2 4 - - 0.0
31/04:00am 10.5 9.9 7.2 80 1.7 CALM 0 0 0 0 - - 0.0
31/03:30am 10.5 9.0 7.0 79 1.8 SW 4 7 2 4 - - 0.0
31/03:00am 10.5 9.8 6.8 78 1.9 CALM 0 4 0 2 - - 0.0
31/02:30am 11.0 9.2 7.3 78 1.9 WSW 6 7 3 4 - - 0.0
31/02:00am 11.3 10.7 7.2 76 2.1 CALM 0 0 0 0 - - 0.0
31/01:30am 11.9 11.1 8.0 77 2.0 NE 2 6 1 3 - - 0.0
31/01:00am 11.5 10.0 8.4 81 1.6 NNE 6 7 3 4 - - 0.0
31/12:30am 11.1 9.7 8.7 85 1.3 ENE 6 7 3 4 - - 0.0
31/12:00am 11.1 9.4 8.3 83 1.5 ENE 7 11 4 6 - - 0.0
 
Date/Time
EDT
Temp
°C
App
Temp
°C
Dew
Point
Rel
Hum
%
Delta-T
°C
Wind Press
QNH
hPa
Press
MSL
hPa
Rain
since 9 am
mm
Dir
 
Spd
km/h
Gust
km/h
Spd
kts
Gust
kts
30/11:30pm 11.5 9.3 7.8 78 1.9 ENE 9 13 5 7 - - 0.0
30/11:00pm 12.6 10.7 7.7 72 2.5 ENE 7 9 4 5 - - 0.0
30/10:30pm 13.4 11.0 7.0 65 3.3 ENE 9 11 5 6 - - 0.0
30/10:00pm 14.7 13.1 4.7 51 5.0 SSE 2 15 1 8 - - 0.0
30/09:30pm 15.0 13.2 3.5 46 5.6 S 2 7 1 4 - - 0.0
30/09:00pm 14.6 11.8 3.4 47 5.4 SW 7 9 4 5 - - 0.0
30/08:30pm 14.8 12.1 3.6 47 5.4 SW 7 11 4 6 - - 0.0
30/08:00pm 16.1 12.8 4.5 46 5.8 WSW 11 15 6 8 - - 0.0
30/07:30pm 15.9 12.6 4.3 46 5.7 WSW 11 17 6 9 - - 0.0
30/07:00pm 16.2 12.5 4.6 46 5.8 WSW 13 17 7 9 - - 0.0
30/06:30pm 17.8 13.8 4.7 42 6.6 WSW 15 22 8 12 - - 0.0
30/06:00pm 17.0 11.4 3.3 40 6.7 WSW 22 35 12 19 - - 0.0
30/05:30pm 17.6 12.5 3.1 38 7.1 WSW 19 32 10 17 - - 0.0
30/05:00pm 18.5 12.9 3.2 36 7.6 WSW 22 39 12 21 - - 0.0
30/04:30pm 17.9 12.7 3.4 38 7.2 WSW 20 30 11 16 - - 0.0
30/04:00pm 19.0 14.0 4.7 39 7.3 WSW 20 35 11 19 - - 0.0
30/03:30pm 19.3 14.5 5.7 41 7.1 WSW 20 32 11 17 - - 0.0
30/03:00pm 17.8 11.4 3.3 38 7.1 WSW 26 39 14 21 - - 0.0
30/02:30pm 17.8 11.4 3.3 38 7.1 WSW 26 37 14 20 - - 0.0
30/02:00pm 17.2 11.9 4.9 44 6.2 WSW 22 37 12 20 - - 0.0
30/01:30pm 16.6 10.3 4.0 43 6.2 WSW 26 44 14 24 - - 0.0
30/01:00pm 16.8 10.5 5.7 48 5.7 WSW 28 43 15 23 - - 0.0
30/12:30pm 15.2 11.4 5.7 53 4.8 WSW 15 28 8 15 - - 0.0
30/12:00pm 15.5 10.8 6.2 54 4.8 W 20 32 11 17 - - 0.0
30/11:30am 14.4 10.1 5.2 54 4.6 W 17 37 9 20 - - 0.0
30/11:00am 13.8 10.8 5.9 59 4.0 WSW 11 17 6 9 - - 0.0
30/10:30am 12.5 8.9 5.0 60 3.7 WSW 13 17 7 9 - - 0.0
30/10:00am 11.8 7.8 3.1 55 4.1 W 13 20 7 11 - - 0.0
30/09:30am 9.7 5.9 5.9 77 1.9 W 15 20 8 11 - - 0.0
30/09:00am 10.0 6.8 5.2 72 2.3 W 11 19 6 10 - - 0.0
30/08:30am 8.7 5.8 6.5 86 1.1 WSW 11 17 6 9 - - 0.0
30/08:00am 8.6 5.7 6.4 86 1.1 WSW 11 13 6 7 - - 0.0
30/07:30am 8.0 5.4 6.3 89 0.8 WSW 9 11 5 6 - - 0.0
30/07:00am 7.5 4.5 6.0 90 0.7 WSW 11 13 6 7 - - 0.0
30/06:30am 7.3 4.2 5.6 89 0.8 WSW 11 13 6 7 - - 0.0
30/06:00am 7.8 5.1 5.6 86 1.1 WSW 9 15 5 8 - - 0.0
30/05:30am 7.8 4.7 5.4 85 1.1 WSW 11 13 6 7 - - 0.0
30/05:00am 7.8 4.5 4.4 79 1.6 SW 11 15 6 8 - - 0.0
30/04:30am 8.2 4.5 4.6 78 1.7 WSW 13 20 7 11 - - 0.0
30/04:00am 8.2 4.2 4.8 79 1.6 WSW 15 17 8 9 - - 0.0
30/03:30am 8.4 4.8 5.0 79 1.6 WSW 13 19 7 10 - - 0.0
30/03:00am 8.4 5.3 5.5 82 1.4 WSW 11 17 6 9 - - 0.0
30/02:30am 8.9 4.6 5.3 78 1.7 SW 17 24 9 13 - - 0.0
30/02:00am 9.0 6.0 6.1 82 1.4 SW 11 19 6 10 - - 0.0
30/01:30am 9.2 5.5 6.3 82 1.4 SW 15 20 8 11 - - 0.0
30/01:00am 9.1 5.8 6.5 84 1.3 SW 13 17 7 9 - - 0.0
30/12:30am 9.0 6.6 6.8 86 1.1 WSW 9 13 5 7 - - 0.0
30/12:00am 9.3 6.8 6.7 84 1.3 SW 9 15 5 8 - - 0.0
 
Date/Time
EDT
Temp
°C
App
Temp
°C
Dew
Point
Rel
Hum
%
Delta-T
°C
Wind Press
QNH
hPa
Press
MSL
hPa
Rain
since 9 am
mm
Dir
 
Spd
km/h
Gust
km/h
Spd
kts
Gust
kts
29/11:30pm 9.4 7.3 6.8 84 1.3 SSW 7 13 4 7 - - 0.0
29/11:00pm 9.5 8.4 7.1 85 1.2 SE 2 9 1 5 - - 0.0
29/10:30pm 9.8 8.1 7.7 87 1.1 NE 6 7 3 4 - - 0.0
29/10:00pm 9.9 8.1 7.3 84 1.3 ENE 6 9 3 5 - - 0.0
29/09:30pm 10.7 8.3 7.0 78 1.9 ENE 9 13 5 7 - - 0.0
29/09:00pm 11.7 8.7 6.0 68 2.8 ESE 11 19 6 10 - - 0.0
29/08:30pm 12.1 9.1 5.9 66 3.1 ESE 11 20 6 11 - - 0.0
29/08:00pm 13.5 10.7 5.2 57 4.1 ESE 9 15 5 8 - - 0.0
29/07:30pm 14.6 11.9 5.7 55 4.5 SE 9 17 5 9 - - 0.0
29/07:00pm 16.1 13.4 5.7 50 5.3 SE 9 17 5 9 - - 0.0
29/06:30pm 16.8 13.3 5.4 47 5.8 S 13 20 7 11 - - 0.0
29/06:00pm 17.6 14.3 6.2 47 5.9 SW 13 22 7 12 - - 0.0
29/05:30pm 17.3 13.9 5.9 47 5.9 SSW 13 20 7 11 - - 0.0
29/05:00pm 15.1 11.3 5.6 53 4.8 SW 15 22 8 12 - - 0.0
29/04:30pm 15.7 12.2 5.3 50 5.2 SSW 13 19 7 10 - - 0.0
29/04:00pm 16.3 12.5 5.6 49 5.5 SW 15 26 8 14 - - 0.0
29/03:30pm 15.3 11.9 6.1 54 4.7 SSW 13 20 7 11 - - 0.0
29/03:00pm 15.1 11.6 5.6 53 4.8 SSW 13 24 7 13 - - 0.0

Other Formats:

Comma delimited format used in spreadsheet applications
http://www.bom.gov.au/fwo/IDN60801/IDN60801.94743.axf

JavaScript Object Notation format (JSON) in row-major order
http://www.bom.gov.au/fwo/IDN60801/IDN60801.94743.json